Terminal Aerodrome Forecast
Issued by NWS

Home | Current Version | Previous Version | Text Only | Print | Product List | Glossary On
Versions: 1 2 3 4 5 6 7 8 9 10 11 12 13 14 15 16 17 18 19 20 21 22 23 24 25 26 27 28 29
000
FTUS45 KTFX 162341
TAFHVR
TAF
KHVR 162341Z 1700/1724 VRB06KT P6SM FEW080 SCT090
     FM170300 VRB06KT P6SM FEW060 FEW110
     FM170600 VRB04KT 6SM BR FEW050
     FM171200 VRB04KT P6SM FEW060 FEW250=

USA.gov is the U.S. government's official web portal to all federal, state and local government web resources and services.